Cloverdale, Indiana
Current Conditions -  °F | °C
As of 9:35 AM on Sunday 25 Jan 2015 (Local Time) from K4I7 Reporting Station
Overcast Overcast  
Wind Chill: 32°   Ceiling: 7000
Heat Index: 36°   Visibility: 7mi
Dew Point: 30°   Wind: 5mph
Humidity: 81%   Direction: 100°E
Pressure: 29.65"   Gusts: NA
Location:  39.51°N, 86.79°W
Report Text: K4I7 251435Z AUTO 10004KT 7SM SCT048 SCT050 OVC070 02/M01 A2965 RMK AO2
Loading
Personal Weather Stations






























Interactive Weather Map New forecast layout! Learn more

10-Day Weather Forecast

Advertisements
Track Severe Weather on mobile